createdAt,value
2023-03-03T00:00:45.022Z,98446.60
2023-03-03T00:03:54.930Z,98440.44
2023-03-03T00:06:58.917Z,98436.33
2023-03-03T00:10:02.687Z,98437.68
2023-03-03T00:13:16.308Z,98438.55
2023-03-03T00:16:23.296Z,98433.99
2023-03-03T00:19:26.928Z,98434.70
2023-03-03T00:22:35.841Z,98434.58
2023-03-03T00:25:43.309Z,98435.23
2023-03-03T00:28:52.074Z,98439.42
2023-03-03T00:31:55.871Z,98442.29
2023-03-03T00:35:19.569Z,98443.77
2023-03-03T00:38:24.223Z,98442.16
2023-03-03T00:41:28.460Z,98448.67
2023-03-03T00:44:46.546Z,98447.02
2023-03-03T00:47:50.557Z,98450.35
2023-03-03T00:50:57.198Z,98447.98
2023-03-03T00:54:00.891Z,98443.03
2023-03-03T00:57:04.171Z,98438.43
2023-03-03T01:00:09.184Z,98435.13
2023-03-03T01:03:19.401Z,98428.88
2023-03-03T01:06:23.101Z,98428.89
2023-03-03T01:09:26.449Z,98429.16
2023-03-03T01:12:30.936Z,98425.77
2023-03-03T01:15:34.467Z,98427.97
2023-03-03T01:18:40.308Z,98424.33
2023-03-03T01:21:43.657Z,98417.49
2023-03-03T01:24:47.095Z,98411.15
2023-03-03T01:27:50.451Z,98408.23
2023-03-03T01:30:54.404Z,98403.71
2023-03-03T01:33:57.807Z,98403.41
2023-03-03T01:37:01.171Z,98401.04
2023-03-03T01:40:13.581Z,98399.98
2023-03-03T01:43:16.715Z,98398.62
2023-03-03T01:46:34.663Z,98395.39
2023-03-03T01:50:02.905Z,98393.73
2023-03-03T01:53:17.493Z,98390.95
2023-03-03T01:56:21.420Z,98392.42
2023-03-03T01:59:29.771Z,98397.20
2023-03-03T02:02:34.585Z,98396.60
2023-03-03T02:05:40.098Z,98394.55
2023-03-03T02:08:48.820Z,98395.48
2023-03-03T02:11:55.262Z,98390.59
2023-03-03T02:14:58.634Z,98393.50
2023-03-03T02:18:06.087Z,98396.55
2023-03-03T02:21:15.556Z,98397.59
2023-03-03T02:24:53.790Z,98403.59
2023-03-03T02:27:57.726Z,98408.90
2023-03-03T02:31:02.402Z,98402.87
2023-03-03T02:34:06.639Z,98398.89
2023-03-03T02:37:09.959Z,98398.87
2023-03-03T02:40:14.695Z,98394.08
2023-03-03T02:43:23.641Z,98395.06
2023-03-03T02:46:29.421Z,98394.07
2023-03-03T02:49:35.552Z,98395.54
2023-03-03T02:52:39.616Z,98397.94
2023-03-03T02:55:42.874Z,98399.58
2023-03-03T02:58:46.114Z,98401.73
2023-03-03T03:01:50.235Z,98406.73
2023-03-03T03:04:54.964Z,98408.25
2023-03-03T03:07:59.551Z,98400.30
2023-03-03T03:11:04.174Z,98390.40
2023-03-03T03:14:11.775Z,98390.67
2023-03-03T03:17:15.219Z,98386.11
2023-03-03T03:20:19.356Z,98384.39
2023-03-03T03:23:23.009Z,98384.52
2023-03-03T03:26:26.374Z,98379.63
2023-03-03T03:29:29.754Z,98380.91
2023-03-03T03:32:33.020Z,98370.42
2023-03-03T03:35:37.095Z,98372.45
2023-03-03T03:38:41.211Z,98374.86
2023-03-03T03:41:44.988Z,98378.34
2023-03-03T03:44:48.306Z,98379.23
2023-03-03T03:47:51.510Z,98383.87
2023-03-03T03:50:54.860Z,98380.12
2023-03-03T03:53:58.402Z,98389.06
2023-03-03T03:57:02.083Z,98391.88
2023-03-03T04:00:07.049Z,98390.11
2023-03-03T04:03:17.092Z,98387.23
2023-03-03T04:06:21.275Z,98382.58
2023-03-03T04:09:25.168Z,98380.96
2023-03-03T04:12:28.522Z,98378.91
2023-03-03T04:15:32.023Z,98384.17
2023-03-03T04:18:35.915Z,98388.52
2023-03-03T04:21:39.619Z,98395.63
2023-03-03T04:24:43.614Z,98402.56
2023-03-03T04:27:46.909Z,98410.23
2023-03-03T04:30:51.408Z,98415.16
2023-03-03T04:33:55.038Z,98405.46
2023-03-03T04:36:58.548Z,98402.35
2023-03-03T04:40:02.191Z,98402.85
2023-03-03T04:43:06.317Z,98397.92
2023-03-03T04:46:09.653Z,98404.50
2023-03-03T04:49:13.459Z,98402.89
2023-03-03T04:52:17.244Z,98409.18
2023-03-03T04:55:20.713Z,98414.87
2023-03-03T04:58:24.389Z,98417.35
2023-03-03T05:01:28.020Z,98416.09
2023-03-03T05:04:32.435Z,98417.72
2023-03-03T05:07:35.779Z,98422.62
2023-03-03T05:10:39.775Z,98417.60
2023-03-03T05:13:43.180Z,98417.08
2023-03-03T05:16:46.449Z,98409.06
2023-03-03T05:19:49.650Z,98409.31
2023-03-03T05:22:53.085Z,98417.42
2023-03-03T05:25:56.231Z,98421.11
2023-03-03T05:28:59.418Z,98425.23
2023-03-03T05:32:02.581Z,98425.86
2023-03-03T05:35:06.487Z,98434.29
2023-03-03T05:38:10.039Z,98442.53
2023-03-03T05:41:13.444Z,98428.54
2023-03-03T05:44:16.705Z,98441.70
2023-03-03T05:47:19.964Z,98451.12
2023-03-03T05:50:24.322Z,98469.60
2023-03-03T05:53:28.484Z,98464.70
2023-03-03T05:56:31.676Z,98466.01
2023-03-03T05:59:34.860Z,98467.48
2023-03-03T06:02:38.098Z,98446.58
2023-03-03T06:05:41.373Z,98446.79
2023-03-03T06:08:44.765Z,98452.70
2023-03-03T06:11:48.032Z,98461.98
2023-03-03T06:14:51.335Z,98476.20
2023-03-03T06:17:54.778Z,98476.73
2023-03-03T06:20:57.971Z,98471.77
2023-03-03T06:24:01.177Z,98472.68
2023-03-03T06:27:04.478Z,98468.19
2023-03-03T06:30:08.301Z,98469.48
2023-03-03T06:33:11.944Z,98473.90
2023-03-03T06:36:15.461Z,98474.71
2023-03-03T06:39:18.741Z,98469.23
2023-03-03T06:42:24.030Z,98464.73
2023-03-03T06:45:27.477Z,98476.02
2023-03-03T06:48:32.134Z,98467.63
2023-03-03T06:51:41.120Z,98456.20
2023-03-03T06:54:44.906Z,98441.63
2023-03-03T06:57:48.288Z,98438.36
2023-03-03T07:00:59.510Z,98448.46
2023-03-03T07:04:11.690Z,98444.90
2023-03-03T07:07:24.872Z,98445.63
2023-03-03T07:10:30.966Z,98457.18
2023-03-03T07:13:34.533Z,98462.19
2023-03-03T07:16:37.910Z,98465.73
2023-03-03T07:19:41.519Z,98470.16
2023-03-03T07:22:44.809Z,98464.88
2023-03-03T07:25:48.670Z,98465.30
2023-03-03T07:29:00.381Z,98462.16
2023-03-03T07:32:11.234Z,98459.48
2023-03-03T07:35:41.698Z,98478.98
2023-03-03T07:38:53.557Z,98497.14
2023-03-03T07:42:19.973Z,98508.81
2023-03-03T07:45:25.537Z,98507.77
2023-03-03T07:48:38.923Z,98501.13
2023-03-03T07:51:42.377Z,98503.65
2023-03-03T07:54:47.396Z,98495.95
2023-03-03T07:57:54.775Z,98483.95
2023-03-03T08:01:49.880Z,98485.63
2023-03-03T08:04:54.900Z,98489.67
2023-03-03T08:08:16.202Z,98491.23
2023-03-03T08:13:09.281Z,98490.08
2023-03-03T08:16:12.563Z,98496.98
2023-03-03T08:19:18.237Z,98502.67
2023-03-03T08:22:30.390Z,98509.33
2023-03-03T08:25:33.787Z,98515.25
2023-03-03T08:28:37.104Z,98525.36
2023-03-03T08:31:42.097Z,98519.09
2023-03-03T08:34:45.709Z,98512.81
2023-03-03T08:38:03.650Z,98509.48
2023-03-03T08:41:07.197Z,98509.41
2023-03-03T08:44:11.331Z,98505.36
2023-03-03T08:47:14.666Z,98504.02
2023-03-03T08:50:18.656Z,98496.51
2023-03-03T08:53:26.122Z,98491.61
2023-03-03T08:56:29.721Z,98494.12
2023-03-03T08:59:38.118Z,98496.35
2023-03-03T09:02:41.942Z,98496.41
2023-03-03T09:05:45.848Z,98490.45
2023-03-03T09:08:50.421Z,98493.46
2023-03-03T09:11:59.773Z,98494.70
2023-03-03T09:15:19.078Z,98488.67
2023-03-03T09:18:37.332Z,98487.80
2023-03-03T09:21:42.376Z,98497.80
2023-03-03T09:24:47.713Z,98503.84
2023-03-03T09:27:53.813Z,98503.97
2023-03-03T09:30:59.807Z,98500.61
2023-03-03T09:34:12.711Z,98506.67
2023-03-03T09:37:26.735Z,98501.13
2023-03-03T09:40:57.620Z,98504.03
2023-03-03T09:44:22.054Z,98493.69
2023-03-03T09:47:49.930Z,98495.56
2023-03-03T09:51:22.525Z,98492.23
2023-03-03T09:54:39.845Z,98494.15
2023-03-03T09:58:10.851Z,98498.53
2023-03-03T10:01:32.689Z,98505.98
2023-03-03T10:05:04.211Z,98517.41
2023-03-03T10:08:40.743Z,98526.20
2023-03-03T10:11:46.762Z,98531.39
2023-03-03T10:14:52.979Z,98528.09
2023-03-03T10:18:12.315Z,98526.35
2023-03-03T10:21:39.730Z,98523.16
2023-03-03T10:28:35.133Z,98526.50
2023-03-03T10:31:44.674Z,98525.42
2023-03-03T10:34:50.982Z,98522.47
2023-03-03T10:38:19.617Z,98531.86
2023-03-03T10:41:47.937Z,98533.52
2023-03-03T10:45:02.327Z,98529.96
2023-03-03T10:48:14.940Z,98531.44
2023-03-03T10:51:21.015Z,98527.30
2023-03-03T10:54:56.173Z,98522.45
2023-03-03T10:58:34.163Z,98523.31
2023-03-03T11:01:59.877Z,98523.73
2023-03-03T11:05:15.638Z,98519.09
2023-03-03T11:08:57.633Z,98512.50
2023-03-03T11:12:26.975Z,98517.80
2023-03-03T11:15:36.471Z,98513.35
2023-03-03T11:18:48.446Z,98507.08
2023-03-03T11:22:16.240Z,98503.14
2023-03-03T11:25:35.717Z,98505.57
2023-03-03T11:28:53.689Z,98506.64
2023-03-03T11:32:17.599Z,98504.33
2023-03-03T11:35:28.033Z,98502.30
2023-03-03T11:38:47.577Z,98501.02
2023-03-03T11:42:02.311Z,98502.36
2023-03-03T11:45:22.785Z,98502.49
2023-03-03T11:49:09.776Z,98504.30
2023-03-03T11:52:43.683Z,98502.52
2023-03-03T11:56:01.645Z,98497.06
2023-03-03T11:59:18.556Z,98498.42
2023-03-03T12:02:27.981Z,98501.35
2023-03-03T12:05:39.984Z,98502.25
2023-03-03T12:08:58.399Z,98496.70
2023-03-03T12:12:19.023Z,98494.17
2023-03-03T12:15:31.254Z,98489.67
2023-03-03T12:19:08.664Z,98488.84
2023-03-03T12:22:21.895Z,98489.10
2023-03-03T12:25:38.459Z,98484.18
2023-03-03T12:29:06.700Z,98482.30
2023-03-03T12:32:16.032Z,98483.86
2023-03-03T12:35:26.288Z,98481.25
2023-03-03T12:38:59.368Z,98486.27
2023-03-03T12:42:24.874Z,98477.34
2023-03-03T12:45:53.616Z,98478.60
2023-03-03T12:48:56.935Z,98472.63
2023-03-03T12:52:02.972Z,98468.55
2023-03-03T12:55:21.445Z,98468.95
2023-03-03T12:58:36.507Z,98468.05
2023-03-03T13:02:04.052Z,98471.31
2023-03-03T13:05:21.732Z,98467.94
2023-03-03T13:08:37.104Z,98461.84
2023-03-03T13:11:40.312Z,98469.13
2023-03-03T13:14:43.502Z,98468.67
2023-03-03T13:18:10.504Z,98461.56
2023-03-03T13:21:27.113Z,98462.92
2023-03-03T13:24:42.706Z,98465.21
2023-03-03T13:27:51.477Z,98462.54
2023-03-03T13:31:03.114Z,98467.48
2023-03-03T13:34:18.350Z,98460.36
2023-03-03T13:37:28.232Z,98459.87
2023-03-03T13:40:43.580Z,98462.71
2023-03-03T13:43:53.607Z,98458.16
2023-03-03T13:47:08.571Z,98457.41
2023-03-03T13:50:29.157Z,98456.68
2023-03-03T13:53:41.673Z,98461.00
2023-03-03T13:56:50.772Z,98465.52
2023-03-03T14:00:11.490Z,98463.52
2023-03-03T14:03:23.983Z,98459.62
2023-03-03T14:06:28.515Z,98461.69
2023-03-03T14:09:40.209Z,98464.66
2023-03-03T14:13:11.575Z,98462.09
2023-03-03T14:16:33.470Z,98461.54
2023-03-03T14:19:57.735Z,98463.80
2023-03-03T14:23:14.745Z,98461.42
2023-03-03T14:26:18.088Z,98464.67
2023-03-03T14:29:27.686Z,98461.96
2023-03-03T14:32:44.710Z,98461.08
2023-03-03T14:35:51.357Z,98457.74
2023-03-03T14:38:54.879Z,98456.02
2023-03-03T14:41:59.469Z,98451.23
2023-03-03T14:45:32.614Z,98445.27
2023-03-03T14:48:51.442Z,98447.32
2023-03-03T14:52:04.445Z,98451.91
2023-03-03T14:55:33.319Z,98450.67
2023-03-03T14:58:42.507Z,98440.02
2023-03-03T15:01:47.303Z,98434.20
2023-03-03T15:04:51.152Z,98438.13
2023-03-03T15:08:09.014Z,98430.73
2023-03-03T15:11:19.558Z,98429.16
2023-03-03T15:14:31.604Z,98433.42
2023-03-03T15:17:51.013Z,98430.64
2023-03-03T15:21:32.340Z,98435.48
2023-03-03T15:24:43.723Z,98433.50
2023-03-03T15:28:19.723Z,98434.83
2023-03-03T15:31:44.562Z,98436.70
2023-03-03T15:35:00.242Z,98435.69
2023-03-03T15:38:19.100Z,98435.11
2023-03-03T15:41:26.887Z,98430.02
2023-03-03T15:44:56.426Z,98426.33
2023-03-03T15:48:05.321Z,98425.23
2023-03-03T15:51:35.895Z,98425.61
2023-03-03T15:54:44.367Z,98432.14
2023-03-03T15:57:56.840Z,98433.21
2023-03-03T16:01:19.452Z,98431.87
2023-03-03T16:04:28.370Z,98434.61
2023-03-03T16:07:34.184Z,98433.91
2023-03-03T16:10:46.503Z,98437.16
2023-03-03T16:14:17.283Z,98439.70
2023-03-03T16:17:20.417Z,98439.23
2023-03-03T16:20:34.778Z,98437.13
2023-03-03T16:23:50.799Z,98434.48
2023-03-03T16:27:24.811Z,98432.44
2023-03-03T16:30:38.147Z,98428.46
2023-03-03T16:33:50.596Z,98429.81
2023-03-03T16:37:08.891Z,98432.84
2023-03-03T16:40:26.909Z,98431.76
2023-03-03T16:43:45.147Z,98423.58
2023-03-03T16:46:49.990Z,98428.63
2023-03-03T16:50:23.047Z,98429.74
2023-03-03T16:53:44.256Z,98431.57
2023-03-03T16:57:10.733Z,98435.34
2023-03-03T17:00:40.759Z,98442.81
2023-03-03T17:03:46.591Z,98445.15
2023-03-03T17:06:58.025Z,98441.55
2023-03-03T17:10:38.795Z,98445.38
2023-03-03T17:14:12.875Z,98456.28
2023-03-03T17:17:28.239Z,98453.17
2023-03-03T17:20:50.519Z,98455.34
2023-03-03T17:24:19.922Z,98458.69
2023-03-03T17:27:46.433Z,98460.27
2023-03-03T17:31:08.716Z,98464.09
2023-03-03T17:34:41.522Z,98461.29
2023-03-03T17:37:47.783Z,98459.48
2023-03-03T17:41:14.890Z,98462.52
2023-03-03T17:44:21.094Z,98463.57
2023-03-03T17:47:47.131Z,98458.16
2023-03-03T17:51:13.543Z,98459.91
2023-03-03T17:54:49.140Z,98455.61
2023-03-03T17:58:11.758Z,98457.04
2023-03-03T18:01:36.293Z,98449.48
2023-03-03T18:05:02.347Z,98452.60
2023-03-03T18:08:24.195Z,98452.23
2023-03-03T18:11:58.292Z,98450.73
2023-03-03T18:15:01.479Z,98460.63
2023-03-03T18:18:15.445Z,98459.88
2023-03-03T18:21:26.983Z,98464.15
2023-03-03T18:24:54.750Z,98463.20
2023-03-03T18:28:00.402Z,98459.73
2023-03-03T18:31:05.037Z,98456.97
2023-03-03T18:34:10.047Z,98457.09
2023-03-03T18:37:31.710Z,98454.90
2023-03-03T18:40:35.608Z,98452.19
2023-03-03T18:43:41.763Z,98456.40
2023-03-03T18:46:47.631Z,98446.00
2023-03-03T18:50:13.228Z,98440.02
2023-03-03T18:53:29.019Z,98447.84
2023-03-03T18:56:47.015Z,98444.72
2023-03-03T18:59:56.378Z,98440.81
2023-03-03T19:03:00.418Z,98442.63
2023-03-03T19:06:10.293Z,98443.02
2023-03-03T19:09:20.276Z,98439.95
2023-03-03T19:12:48.602Z,98442.00
2023-03-03T19:15:55.959Z,98444.66
2023-03-03T19:19:02.357Z,98453.33
2023-03-03T19:22:27.996Z,98454.83
2023-03-03T19:25:34.494Z,98442.73
2023-03-03T19:28:44.866Z,98441.70
2023-03-03T19:32:26.529Z,98443.20
2023-03-03T19:35:38.948Z,98450.42
2023-03-03T19:38:42.108Z,98450.11
2023-03-03T19:41:57.503Z,98453.52
2023-03-03T19:45:22.260Z,98454.04
2023-03-03T19:48:28.273Z,98452.61
2023-03-03T19:51:55.597Z,98450.37
2023-03-03T19:55:17.220Z,98448.24
2023-03-03T19:58:35.128Z,98448.04
2023-03-03T20:02:16.691Z,98445.42
2023-03-03T20:05:31.128Z,98439.98
2023-03-03T20:08:44.011Z,98443.10
2023-03-03T20:12:26.062Z,98439.04
2023-03-03T20:15:47.583Z,98444.77
2023-03-03T20:19:10.427Z,98445.88
2023-03-03T20:22:19.440Z,98443.70
2023-03-03T20:25:43.413Z,98441.22
2023-03-03T20:29:02.025Z,98439.58
2023-03-03T20:32:30.713Z,98441.42
2023-03-03T20:36:04.917Z,98439.48
2023-03-03T20:39:13.825Z,98435.52
2023-03-03T20:42:38.132Z,98432.11
2023-03-03T20:46:08.380Z,98423.48
2023-03-03T20:49:21.787Z,98418.33
2023-03-03T20:53:02.629Z,98417.34
2023-03-03T20:56:16.918Z,98418.72
2023-03-03T20:59:38.887Z,98412.76
2023-03-03T21:03:19.051Z,98404.68
2023-03-03T21:06:38.293Z,98404.23
2023-03-03T21:09:41.757Z,98402.52
2023-03-03T21:12:45.250Z,98406.59
2023-03-03T21:15:59.929Z,98400.90
2023-03-03T21:19:10.141Z,98403.67
2023-03-03T21:22:13.514Z,98403.80
2023-03-03T21:25:40.161Z,98398.65
2023-03-03T21:29:03.225Z,98390.60
2023-03-03T21:32:09.251Z,98395.83
2023-03-03T21:35:19.014Z,98392.57
2023-03-03T21:38:36.746Z,98389.48
2023-03-03T21:41:56.562Z,98377.21
2023-03-03T21:45:13.409Z,98373.20
2023-03-03T21:48:16.689Z,98371.33
2023-03-03T21:51:21.475Z,98365.27
2023-03-03T21:54:25.394Z,98362.65
2023-03-03T21:57:28.747Z,98361.23
2023-03-03T22:00:32.043Z,98355.46
2023-03-03T22:03:36.186Z,98348.51
2023-03-03T22:06:39.937Z,98343.88
2023-03-03T22:09:43.294Z,98343.50
2023-03-03T22:12:47.257Z,98338.76
2023-03-03T22:15:50.940Z,98326.27
2023-03-03T22:18:54.262Z,98322.68
2023-03-03T22:21:57.719Z,98317.69
2023-03-03T22:25:01.137Z,98319.23
2023-03-03T22:28:04.591Z,98313.45
2023-03-03T22:31:08.008Z,98310.68
2023-03-03T22:34:11.827Z,98310.36
2023-03-03T22:37:15.193Z,98309.04
2023-03-03T22:40:18.733Z,98303.23
2023-03-03T22:43:22.106Z,98299.89
2023-03-03T22:46:25.686Z,98297.16
2023-03-03T22:49:29.411Z,98295.69
2023-03-03T22:52:32.818Z,98295.91
2023-03-03T22:55:37.248Z,98304.20
2023-03-03T22:58:40.523Z,98301.60
2023-03-03T23:01:43.804Z,98295.80
2023-03-03T23:04:47.211Z,98298.75
2023-03-03T23:07:50.807Z,98288.05
2023-03-03T23:10:54.077Z,98277.81
2023-03-03T23:13:57.320Z,98275.31
2023-03-03T23:17:00.843Z,98273.91
2023-03-03T23:20:04.397Z,98279.89
2023-03-03T23:23:07.676Z,98279.15
2023-03-03T23:26:10.903Z,98278.19
2023-03-03T23:29:14.112Z,98274.48
2023-03-03T23:32:17.307Z,98273.94
2023-03-03T23:35:21.007Z,98268.52
2023-03-03T23:38:24.251Z,98267.00
2023-03-03T23:41:27.508Z,98261.92
2023-03-03T23:44:30.770Z,98260.21
2023-03-03T23:47:34.187Z,98253.81
2023-03-03T23:50:38.152Z,98247.88
2023-03-03T23:53:41.355Z,98248.73
2023-03-03T23:56:44.496Z,98244.86
2023-03-03T23:59:47.831Z,98244.00
